createdAt,value
2023-01-23T00:02:18.378Z,5.46
2023-01-23T00:04:53.351Z,5.50
2023-01-23T00:07:24.069Z,5.50
2023-01-23T00:09:56.434Z,5.49
2023-01-23T00:12:29.057Z,5.46
2023-01-23T00:15:01.589Z,5.48
2023-01-23T00:17:34.128Z,5.46
2023-01-23T00:20:07.566Z,5.49
2023-01-23T00:22:40.013Z,5.53
2023-01-23T00:25:12.756Z,5.52
2023-01-23T00:27:45.207Z,5.53
2023-01-23T00:30:18.721Z,5.54
2023-01-23T00:32:51.174Z,5.52
2023-01-23T00:35:24.009Z,5.43
2023-01-23T00:37:58.007Z,5.53
2023-01-23T00:40:30.531Z,5.56
2023-01-23T00:43:02.834Z,5.58
2023-01-23T00:45:36.486Z,5.57
2023-01-23T00:48:09.652Z,5.57
2023-01-23T00:50:42.081Z,5.54
2023-01-23T00:53:14.614Z,5.52
2023-01-23T00:55:47.143Z,5.56
2023-01-23T00:58:19.782Z,5.56
2023-01-23T01:00:52.518Z,5.53
2023-01-23T01:03:26.120Z,5.54
2023-01-23T01:05:59.294Z,5.51
2023-01-23T01:08:33.470Z,5.51
2023-01-23T01:11:07.060Z,5.49
2023-01-23T01:13:39.508Z,5.51
2023-01-23T01:16:13.004Z,5.51
2023-01-23T01:18:46.286Z,5.49
2023-01-23T01:21:19.764Z,5.42
2023-01-23T01:23:52.576Z,5.44
2023-01-23T01:26:26.317Z,5.44
2023-01-23T01:29:00.232Z,5.48
2023-01-23T01:31:33.027Z,5.46
2023-01-23T01:34:05.482Z,5.48
2023-01-23T01:36:37.982Z,5.48
2023-01-23T01:39:10.632Z,5.48
2023-01-23T01:41:43.106Z,5.39
2023-01-23T01:44:19.620Z,5.43
2023-01-23T01:46:52.965Z,5.43
2023-01-23T01:49:30.161Z,5.42
2023-01-23T01:52:06.934Z,5.34
2023-01-23T01:54:45.131Z,5.39
2023-01-23T01:57:21.508Z,5.46
2023-01-23T01:59:59.004Z,5.44
2023-01-23T02:02:35.533Z,5.44
2023-01-23T02:05:12.082Z,5.48
2023-01-23T02:07:48.986Z,5.46
2023-01-23T02:10:22.285Z,5.47
2023-01-23T02:12:57.721Z,5.45
2023-01-23T02:15:30.251Z,5.43
2023-01-23T02:18:03.089Z,5.45
2023-01-23T02:20:35.659Z,5.45
2023-01-23T02:23:15.785Z,5.42
2023-01-23T02:25:56.764Z,5.30
2023-01-23T02:28:43.422Z,5.43
2023-01-23T02:31:17.358Z,5.45
2023-01-23T02:33:56.347Z,5.45
2023-01-23T02:36:33.211Z,5.45
2023-01-23T02:39:09.815Z,5.38
2023-01-23T02:41:44.177Z,5.39
2023-01-23T02:44:26.366Z,5.41
2023-01-23T02:47:04.322Z,5.37
2023-01-23T02:49:37.180Z,5.39
2023-01-23T02:52:10.643Z,5.42
2023-01-23T02:54:43.051Z,5.43
2023-01-23T02:57:15.677Z,5.44
2023-01-23T03:00:05.558Z,5.43
2023-01-23T03:02:40.249Z,5.43
2023-01-23T03:05:15.576Z,5.36
2023-01-23T03:07:48.001Z,5.39
2023-01-23T03:10:21.185Z,5.28
2023-01-23T03:12:54.121Z,5.38
2023-01-23T03:15:27.129Z,5.39
2023-01-23T03:17:59.953Z,5.37
2023-01-23T03:20:38.893Z,5.37
2023-01-23T03:23:11.759Z,5.30
2023-01-23T03:25:49.053Z,5.26
2023-01-23T03:28:39.204Z,5.40
2023-01-23T03:31:12.078Z,5.39
2023-01-23T03:33:47.206Z,5.40
2023-01-23T03:36:21.127Z,5.41
2023-01-23T03:39:26.128Z,5.37
2023-01-23T03:41:59.353Z,5.39
2023-01-23T03:44:31.970Z,5.41
2023-01-23T03:47:04.335Z,5.39
2023-01-23T03:49:36.962Z,5.39
2023-01-23T03:52:09.807Z,5.32
2023-01-23T03:54:43.571Z,5.32
2023-01-23T03:57:16.115Z,5.37
2023-01-23T04:00:08.462Z,5.38
2023-01-23T04:02:49.231Z,5.38
2023-01-23T04:05:22.763Z,5.39
2023-01-23T04:07:55.361Z,5.37
2023-01-23T04:10:29.197Z,5.39
2023-01-23T04:13:06.705Z,5.39
2023-01-23T04:15:39.289Z,5.36
2023-01-23T04:18:12.538Z,5.39
2023-01-23T04:20:44.860Z,5.39
2023-01-23T04:23:17.594Z,5.36
2023-01-23T04:25:50.394Z,5.35
2023-01-23T04:28:22.862Z,5.40
2023-01-23T04:30:56.051Z,5.41
2023-01-23T04:33:34.883Z,5.45
2023-01-23T04:36:09.529Z,5.44
2023-01-23T04:38:42.411Z,5.43
2023-01-23T04:41:27.922Z,5.43
2023-01-23T04:44:21.143Z,5.43
2023-01-23T04:47:19.747Z,5.43
2023-01-23T04:49:53.939Z,5.39
2023-01-23T04:52:26.423Z,5.38
2023-01-23T04:55:02.542Z,5.35
2023-01-23T04:57:35.185Z,5.38
2023-01-23T05:00:17.241Z,5.36
2023-01-23T05:02:50.897Z,5.37
2023-01-23T05:05:24.036Z,5.29
2023-01-23T05:07:56.883Z,5.29
2023-01-23T05:10:29.843Z,5.28
2023-01-23T05:13:03.523Z,5.20
2023-01-23T05:15:36.186Z,5.21
2023-01-23T05:18:10.918Z,5.16
2023-01-23T05:20:43.531Z,5.13
2023-01-23T05:23:16.064Z,5.13
2023-01-23T05:25:53.581Z,5.16
2023-01-23T05:28:26.197Z,5.14
2023-01-23T05:31:00.424Z,5.17
2023-01-23T05:33:45.190Z,5.19
2023-01-23T05:36:18.726Z,5.17
2023-01-23T05:38:51.472Z,5.21
2023-01-23T05:41:25.712Z,5.13
2023-01-23T05:44:19.352Z,5.18
2023-01-23T05:46:59.245Z,5.22
2023-01-23T05:49:31.678Z,5.25
2023-01-23T05:52:04.413Z,5.25
2023-01-23T05:54:37.472Z,5.16
2023-01-23T05:57:11.646Z,5.27
2023-01-23T06:00:14.344Z,5.29
2023-01-23T06:03:12.704Z,5.29
2023-01-23T06:06:08.258Z,5.21
2023-01-23T06:08:41.166Z,5.21
2023-01-23T06:11:13.798Z,5.20
2023-01-23T06:13:47.036Z,5.23
2023-01-23T06:16:20.052Z,5.24
2023-01-23T06:18:52.674Z,5.26
2023-01-23T06:21:25.425Z,5.21
2023-01-23T06:24:03.390Z,5.22
2023-01-23T06:26:38.781Z,5.26
2023-01-23T06:29:12.447Z,5.17
2023-01-23T06:31:46.319Z,5.29
2023-01-23T06:34:19.080Z,5.29
2023-01-23T06:36:59.282Z,5.29
2023-01-23T06:39:32.192Z,5.31
2023-01-23T06:42:09.902Z,5.28
2023-01-23T06:44:45.752Z,5.30
2023-01-23T06:47:20.053Z,5.32
2023-01-23T06:50:01.109Z,5.32
2023-01-23T06:52:34.840Z,5.33
2023-01-23T06:55:12.188Z,5.34
2023-01-23T06:57:46.599Z,5.32
2023-01-23T07:00:20.997Z,5.29
2023-01-23T07:02:58.970Z,5.26
2023-01-23T07:05:32.629Z,5.22
2023-01-23T07:08:05.172Z,5.29
2023-01-23T07:10:38.899Z,5.32
2023-01-23T07:13:12.686Z,5.33
2023-01-23T07:15:47.815Z,5.11
2023-01-23T07:18:20.465Z,5.24
2023-01-23T07:20:53.787Z,5.24
2023-01-23T07:23:26.332Z,5.29
2023-01-23T07:26:03.928Z,5.31
2023-01-23T07:28:36.320Z,5.23
2023-01-23T07:31:09.161Z,5.35
2023-01-23T07:33:44.334Z,5.33
2023-01-23T07:36:18.577Z,5.35
2023-01-23T07:38:51.258Z,5.36
2023-01-23T07:41:23.774Z,5.40
2023-01-23T07:43:56.071Z,5.32
2023-01-23T07:46:29.163Z,5.32
2023-01-23T07:49:01.770Z,5.31
2023-01-23T07:51:35.298Z,5.34
2023-01-23T07:54:08.347Z,5.37
2023-01-23T07:56:40.784Z,5.40
2023-01-23T07:59:14.694Z,5.40
2023-01-23T08:01:48.994Z,5.42
2023-01-23T08:04:21.807Z,5.43
2023-01-23T08:06:54.248Z,5.47
2023-01-23T08:09:26.969Z,5.44
2023-01-23T08:11:59.468Z,5.47
2023-01-23T08:14:32.304Z,5.40
2023-01-23T08:17:04.876Z,5.53
2023-01-23T08:19:37.220Z,5.54
2023-01-23T08:22:09.722Z,5.55
2023-01-23T08:24:42.496Z,5.59
2023-01-23T08:27:14.958Z,5.60
2023-01-23T08:29:47.610Z,5.62
2023-01-23T08:32:20.193Z,5.65
2023-01-23T08:34:52.965Z,5.68
2023-01-23T08:37:25.392Z,5.68
2023-01-23T08:39:57.744Z,5.65
2023-01-23T08:42:30.245Z,5.57
2023-01-23T08:45:02.619Z,5.69
2023-01-23T08:47:37.151Z,5.72
2023-01-23T08:50:09.897Z,5.74
2023-01-23T08:52:42.348Z,5.75
2023-01-23T08:55:14.855Z,5.77
2023-01-23T08:57:47.254Z,5.69
2023-01-23T09:00:21.641Z,5.76
2023-01-23T09:02:54.612Z,5.77
2023-01-23T09:05:27.283Z,5.82
2023-01-23T09:08:00.724Z,5.84
2023-01-23T09:10:33.334Z,5.88
2023-01-23T09:13:06.479Z,5.88
2023-01-23T09:15:40.915Z,5.91
2023-01-23T09:18:13.428Z,5.92
2023-01-23T09:20:45.904Z,5.97
2023-01-23T09:23:18.464Z,5.98
2023-01-23T09:25:51.374Z,6.01
2023-01-23T09:28:24.231Z,6.03
2023-01-23T09:30:56.587Z,6.06
2023-01-23T09:33:29.195Z,6.08
2023-01-23T09:36:01.828Z,6.01
2023-01-23T09:38:34.696Z,6.13
2023-01-23T09:41:17.651Z,6.15
2023-01-23T09:43:59.332Z,6.14
2023-01-23T09:46:38.213Z,6.18
2023-01-23T09:49:19.025Z,6.17
2023-01-23T09:51:56.838Z,6.14
2023-01-23T09:54:38.863Z,6.08
2023-01-23T09:57:16.763Z,6.02
2023-01-23T10:00:00.163Z,6.19
2023-01-23T10:02:34.189Z,6.20
2023-01-23T10:05:13.853Z,6.13
2023-01-23T10:07:59.316Z,6.12
2023-01-23T10:10:58.654Z,6.20
2023-01-23T10:13:50.047Z,6.19
2023-01-23T10:16:50.088Z,6.18
2023-01-23T10:19:37.412Z,6.23
2023-01-23T10:22:23.153Z,6.26
2023-01-23T10:24:58.365Z,6.30
2023-01-23T10:27:36.233Z,6.30
2023-01-23T10:30:30.369Z,6.32
2023-01-23T10:33:10.959Z,6.31
2023-01-23T10:35:51.717Z,6.29
2023-01-23T10:38:33.729Z,6.23
2023-01-23T10:41:15.655Z,6.21
2023-01-23T10:43:51.017Z,6.28
2023-01-23T10:46:29.254Z,6.28
2023-01-23T10:49:02.759Z,6.29
2023-01-23T10:51:46.267Z,6.28
2023-01-23T10:54:31.366Z,6.28
2023-01-23T10:57:19.862Z,6.21
2023-01-23T10:59:57.751Z,6.24
2023-01-23T11:02:34.736Z,6.27
2023-01-23T11:05:50.394Z,6.30
2023-01-23T11:08:30.322Z,6.32
2023-01-23T11:11:25.561Z,6.33
2023-01-23T11:14:13.148Z,6.33
2023-01-23T11:16:45.775Z,6.33
2023-01-23T11:19:23.761Z,6.33
2023-01-23T11:21:58.160Z,6.26
2023-01-23T11:24:41.069Z,6.40
2023-01-23T11:27:24.447Z,6.42
2023-01-23T11:30:07.973Z,6.40
2023-01-23T11:32:47.927Z,6.45
2023-01-23T11:35:26.333Z,6.39
2023-01-23T11:38:03.533Z,6.32
2023-01-23T11:40:36.188Z,6.35
2023-01-23T11:43:15.477Z,6.23
2023-01-23T11:46:02.356Z,6.28
2023-01-23T11:48:49.245Z,6.27
2023-01-23T11:51:29.991Z,6.18
2023-01-23T11:54:17.724Z,6.19
2023-01-23T11:57:01.825Z,6.11
2023-01-23T11:59:56.338Z,6.29
2023-01-23T12:03:13.466Z,6.26
2023-01-23T12:06:31.049Z,6.32
2023-01-23T12:09:11.056Z,6.38
2023-01-23T12:11:58.476Z,6.34
2023-01-23T12:14:37.633Z,6.34
2023-01-23T12:17:24.648Z,6.38
2023-01-23T12:20:19.813Z,6.44
2023-01-23T12:22:57.720Z,6.43
2023-01-23T12:25:35.118Z,6.49
2023-01-23T12:28:21.021Z,6.52
2023-01-23T12:31:06.749Z,6.50
2023-01-23T12:34:00.794Z,6.45
2023-01-23T12:37:08.151Z,6.42
2023-01-23T12:40:00.941Z,6.38
2023-01-23T12:42:41.305Z,6.42
2023-01-23T12:45:22.388Z,6.42
2023-01-23T12:48:04.140Z,6.36
2023-01-23T12:50:44.309Z,6.33
2023-01-23T12:53:18.678Z,6.29
2023-01-23T12:55:59.001Z,6.28
2023-01-23T12:58:35.491Z,6.28
2023-01-23T13:01:35.541Z,6.20
2023-01-23T13:04:24.447Z,6.23
2023-01-23T13:07:10.441Z,6.25
2023-01-23T13:10:02.599Z,6.23
2023-01-23T13:12:35.552Z,6.11
2023-01-23T13:15:40.997Z,6.13
2023-01-23T13:18:28.196Z,6.04
2023-01-23T13:21:24.136Z,5.96
2023-01-23T13:24:42.017Z,5.98
2023-01-23T13:27:45.710Z,5.90
2023-01-23T13:30:44.979Z,5.87
2023-01-23T13:33:55.227Z,5.64
2023-01-23T13:36:37.159Z,5.85
2023-01-23T13:39:29.793Z,5.85
2023-01-23T13:42:45.857Z,5.74
2023-01-23T13:45:30.509Z,5.85
2023-01-23T14:21:27.778Z,5.99
2023-01-23T14:24:04.192Z,5.91
2023-01-23T14:26:37.237Z,5.84
2023-01-23T14:29:23.052Z,5.99
2023-01-23T14:31:56.158Z,5.98
2023-01-23T14:34:29.116Z,5.94
2023-01-23T14:37:05.734Z,5.93
2023-01-23T14:39:42.362Z,5.95
2023-01-23T14:42:24.799Z,5.94
2023-01-23T14:45:00.821Z,5.92
2023-01-23T14:47:42.223Z,5.85
2023-01-23T14:50:22.838Z,5.87
2023-01-23T14:53:02.334Z,5.85
2023-01-23T14:55:40.573Z,5.87
2023-01-23T14:58:19.998Z,5.81
2023-01-23T15:00:54.933Z,5.82
2023-01-23T15:03:42.713Z,5.83
2023-01-23T15:06:20.460Z,5.84
2023-01-23T15:08:53.558Z,5.75
2023-01-23T15:11:31.242Z,5.84
2023-01-23T15:14:04.695Z,5.73
2023-01-23T15:16:39.316Z,5.74
2023-01-23T15:19:23.164Z,5.80
2023-01-23T15:22:08.273Z,5.66
2023-01-23T15:24:41.502Z,5.61
2023-01-23T15:27:36.941Z,5.55
2023-01-23T15:30:39.154Z,5.75
2023-01-23T15:33:29.158Z,5.75
2023-01-23T15:36:12.158Z,5.69
2023-01-23T15:38:55.621Z,5.71
2023-01-23T15:41:45.458Z,5.66
2023-01-23T15:44:19.513Z,5.69
2023-01-23T15:46:52.679Z,5.73
2023-01-23T15:49:26.486Z,5.67
2023-01-23T15:52:01.881Z,5.66
2023-01-23T15:54:38.253Z,5.79
2023-01-23T15:57:16.233Z,5.75
2023-01-23T15:59:48.813Z,5.68
2023-01-23T16:02:32.923Z,5.60
2023-01-23T16:05:10.950Z,5.67
2023-01-23T16:07:45.397Z,5.67
2023-01-23T16:10:25.050Z,5.72
2023-01-23T16:12:59.106Z,5.61
2023-01-23T16:15:33.173Z,5.63
2023-01-23T16:18:06.037Z,5.65
2023-01-23T16:20:41.382Z,5.64
2023-01-23T16:23:19.363Z,5.64
2023-01-23T16:25:53.390Z,5.61
2023-01-23T16:28:27.282Z,5.68
2023-01-23T16:31:00.015Z,5.69
2023-01-23T16:33:32.680Z,5.66
2023-01-23T16:36:06.343Z,5.61
2023-01-23T16:38:39.111Z,5.62
2023-01-23T16:41:12.314Z,5.64
2023-01-23T16:43:49.452Z,5.63
2023-01-23T16:46:22.319Z,5.62
2023-01-23T16:48:57.068Z,5.52
2023-01-23T16:51:29.818Z,5.64
2023-01-23T16:54:14.234Z,5.59
2023-01-23T16:56:52.834Z,5.75
2023-01-23T16:59:32.654Z,5.75
2023-01-23T17:02:20.487Z,5.78
2023-01-23T17:04:53.579Z,5.68
2023-01-23T17:07:32.341Z,5.84
2023-01-23T17:10:29.795Z,5.81
2023-01-23T17:13:10.006Z,5.85
2023-01-23T17:15:42.933Z,5.84
2023-01-23T17:18:24.242Z,5.82
2023-01-23T17:20:57.670Z,5.80
2023-01-23T17:23:30.332Z,5.82
2023-01-23T17:26:03.286Z,5.82
2023-01-23T17:28:35.855Z,5.87
2023-01-23T17:31:22.824Z,5.86
2023-01-23T17:33:57.416Z,5.87
2023-01-23T17:36:29.941Z,5.87
2023-01-23T17:39:02.747Z,5.88
2023-01-23T17:41:36.450Z,5.84
2023-01-23T17:44:10.242Z,5.79
2023-01-23T17:46:43.119Z,5.84
2023-01-23T17:49:30.046Z,5.88
2023-01-23T17:52:03.704Z,5.89
2023-01-23T17:54:37.526Z,5.91
2023-01-23T17:57:10.624Z,5.91
2023-01-23T17:59:43.235Z,5.90
2023-01-23T18:02:29.970Z,5.92
2023-01-23T18:05:03.110Z,5.89
2023-01-23T18:07:48.464Z,5.75
2023-01-23T18:10:29.815Z,5.89
2023-01-23T18:13:13.773Z,5.87
2023-01-23T18:15:57.745Z,5.84
2023-01-23T18:18:34.628Z,5.71
2023-01-23T18:21:14.941Z,5.87
2023-01-23T18:23:49.485Z,5.89
2023-01-23T18:26:34.339Z,5.90
2023-01-23T18:29:11.559Z,5.88
2023-01-23T18:31:57.963Z,5.91
2023-01-23T18:34:38.664Z,5.89
2023-01-23T18:37:21.164Z,5.90
2023-01-23T18:40:04.711Z,5.90
2023-01-23T18:42:45.665Z,5.91
2023-01-23T18:45:26.983Z,5.78
2023-01-23T18:48:04.668Z,5.89
2023-01-23T18:50:45.043Z,5.89
2023-01-23T18:53:29.876Z,5.87
2023-01-23T18:56:22.438Z,5.88
2023-01-23T18:59:12.082Z,5.87
2023-01-23T19:01:55.816Z,5.89
2023-01-23T19:04:37.626Z,5.89
2023-01-23T19:07:19.452Z,5.85
2023-01-23T19:09:54.491Z,5.87
2023-01-23T19:12:49.496Z,5.87
2023-01-23T19:15:30.362Z,5.88
2023-01-23T19:18:13.818Z,5.84
2023-01-23T19:20:57.621Z,5.80
2023-01-23T19:23:38.566Z,5.83
2023-01-23T19:26:14.474Z,5.84
2023-01-23T19:28:48.770Z,5.76
2023-01-23T19:31:26.647Z,5.82
2023-01-23T19:34:01.598Z,5.79
2023-01-23T19:36:37.211Z,5.80
2023-01-23T19:39:12.819Z,5.80
2023-01-23T19:41:47.550Z,5.80
2023-01-23T19:44:24.911Z,5.78
2023-01-23T19:46:58.643Z,5.82
2023-01-23T19:49:31.875Z,5.85
2023-01-23T19:52:05.295Z,5.83
2023-01-23T19:54:38.337Z,5.85
2023-01-23T19:57:13.536Z,5.75
2023-01-23T19:59:47.198Z,5.82
2023-01-23T20:02:23.356Z,5.80
2023-01-23T20:04:59.173Z,5.81
2023-01-23T20:07:43.160Z,5.77
2023-01-23T20:10:16.993Z,5.75
2023-01-23T20:12:52.310Z,5.75
2023-01-23T20:15:26.989Z,5.78
2023-01-23T20:18:00.359Z,5.75
2023-01-23T20:20:33.426Z,5.75
2023-01-23T20:23:06.355Z,5.73
2023-01-23T20:25:39.445Z,5.72
2023-01-23T20:28:12.922Z,5.74
2023-01-23T20:30:45.906Z,5.76
2023-01-23T20:33:18.966Z,5.79
2023-01-23T20:35:55.335Z,5.69
2023-01-23T20:38:29.276Z,5.81
2023-01-23T20:41:07.895Z,5.79
2023-01-23T20:43:42.977Z,5.80
2023-01-23T20:46:19.169Z,5.78
2023-01-23T20:48:52.732Z,5.79
2023-01-23T20:51:27.168Z,5.77
2023-01-23T20:54:01.064Z,5.78
2023-01-23T20:56:33.951Z,5.78
2023-01-23T20:59:24.095Z,5.78
2023-01-23T21:02:14.244Z,5.74
2023-01-23T21:04:47.669Z,5.76
2023-01-23T21:07:23.172Z,5.79
2023-01-23T21:09:56.483Z,5.76
2023-01-23T21:12:29.970Z,5.81
2023-01-23T21:15:03.518Z,5.79
2023-01-23T21:17:36.876Z,5.79
2023-01-23T21:20:12.631Z,5.77
2023-01-23T21:22:45.482Z,5.76
2023-01-23T21:25:19.172Z,5.75
2023-01-23T21:27:52.466Z,5.72
2023-01-23T21:30:25.548Z,5.71
2023-01-23T21:43:24.711Z,5.83
2023-01-23T21:45:58.273Z,5.78
2023-01-23T21:48:33.641Z,5.79
2023-01-23T21:51:11.672Z,5.80
2023-01-23T21:53:46.008Z,5.80
2023-01-23T21:56:21.464Z,5.78
2023-01-23T21:58:54.212Z,5.67
2023-01-23T22:01:35.460Z,5.75
2023-01-23T22:04:10.393Z,5.64
2023-01-23T22:06:42.510Z,5.75
2023-01-23T22:09:18.681Z,5.75
2023-01-23T22:11:51.571Z,5.73
2023-01-23T22:14:24.610Z,5.71
2023-01-23T22:16:57.509Z,5.72
2023-01-23T22:19:30.526Z,5.69
2023-01-23T22:22:03.048Z,5.70
2023-01-23T22:24:35.539Z,5.69
2023-01-23T22:27:08.093Z,5.69
2023-01-23T22:29:40.528Z,5.69
2023-01-23T22:32:13.189Z,5.72
2023-01-23T22:34:45.639Z,5.73
2023-01-23T22:37:19.243Z,5.73
2023-01-23T22:39:53.102Z,5.74
2023-01-23T22:42:25.755Z,5.72
2023-01-23T22:44:58.323Z,5.51
2023-01-23T22:47:31.333Z,5.72
2023-01-23T22:50:04.422Z,5.73
2023-01-23T22:52:36.916Z,5.74
2023-01-23T22:55:11.380Z,5.75
2023-01-23T22:57:44.073Z,5.77
2023-01-23T23:00:18.214Z,5.75
2023-01-23T23:02:50.649Z,5.75
2023-01-23T23:05:23.428Z,5.74
2023-01-23T23:07:56.182Z,5.74
2023-01-23T23:10:28.644Z,5.74
2023-01-23T23:13:01.023Z,5.72
2023-01-23T23:15:33.616Z,5.77
2023-01-23T23:18:06.637Z,5.77
2023-01-23T23:20:39.195Z,5.76
2023-01-23T23:23:12.015Z,5.76
2023-01-23T23:25:44.476Z,5.75
2023-01-23T23:28:16.816Z,5.78
2023-01-23T23:30:49.363Z,5.79
2023-01-23T23:33:22.224Z,5.69
2023-01-23T23:35:55.251Z,5.77
2023-01-23T23:38:27.731Z,5.79
2023-01-23T23:41:03.706Z,5.80
2023-01-23T23:43:36.896Z,5.77
2023-01-23T23:46:12.007Z,5.73
2023-01-23T23:48:46.207Z,5.65
2023-01-23T23:51:20.237Z,5.66
2023-01-23T23:53:52.958Z,5.70
2023-01-23T23:56:27.964Z,5.70
2023-01-23T23:59:00.791Z,5.71
